Terminal Aerodrome Forecast
Issued by NWS

Home | Current Version | Previous Version | Text Only | Print | Product List | Glossary On
Versions: 1 2 3 4 5 6 7 8 9 10 11 12 13 14 15 16 17 18 19 20 21 22 23 24
000
FTUS45 KBOI 092320
TAFJER
TAF
KJER 092320Z 1000/1024 25015KT P6SM FEW100 BKN200
     FM100300 25009KT P6SM SCT100 BKN150
     FM100600 18008KT P6SM SCT100 BKN150
     FM100900 VRB05KT P6SM BKN250
     FM101700 25008KT P6SM SCT250=

USA.gov is the U.S. government's official web portal to all federal, state and local government web resources and services.